createdAt,value
2022-11-24T06:34:01.710Z,75.20
2022-11-24T06:36:07.345Z,74.85
2022-11-24T06:38:10.277Z,74.69
2022-11-24T06:40:13.678Z,74.17
2022-11-24T06:42:18.964Z,73.97
2022-11-24T06:44:22.591Z,73.68
2022-11-24T06:46:25.666Z,73.54
2022-11-24T06:48:28.912Z,73.09
2022-11-24T06:50:33.821Z,73.11
2022-11-24T06:52:36.818Z,72.97
2022-11-24T06:54:39.683Z,72.73
2022-11-24T06:56:42.496Z,72.34
2022-11-24T06:58:47.331Z,72.13
2022-11-24T07:00:50.076Z,72.32
2022-11-24T07:02:53.047Z,72.26
2022-11-24T07:04:56.099Z,72.13
2022-11-24T07:07:00.212Z,71.84
2022-11-24T07:09:03.268Z,71.84
2022-11-24T07:11:07.371Z,71.46
2022-11-24T07:13:10.704Z,71.54
2022-11-24T07:15:14.199Z,71.27
2022-11-24T07:17:17.213Z,71.08
2022-11-24T07:19:24.582Z,70.93
2022-11-24T07:21:29.081Z,70.94
2022-11-24T07:23:33.205Z,70.88
2022-11-24T07:25:36.285Z,70.88
2022-11-24T07:27:39.023Z,70.65
2022-11-24T07:29:42.107Z,70.19
2022-11-24T07:31:46.137Z,70.53
2022-11-24T07:33:49.639Z,70.42
2022-11-24T07:35:52.979Z,69.91
2022-11-24T07:37:56.913Z,69.96
2022-11-24T07:40:01.196Z,69.99
2022-11-24T07:42:05.171Z,69.67
2022-11-24T07:44:08.542Z,69.55
2022-11-24T07:46:13.723Z,69.79
2022-11-24T07:48:16.794Z,69.34
2022-11-24T07:50:21.170Z,69.42
2022-11-24T07:52:26.681Z,69.17
2022-11-24T07:54:29.455Z,68.95
2022-11-24T07:56:33.568Z,69.06
2022-11-24T07:58:38.241Z,69.14
2022-11-24T08:00:41.151Z,69.09
2022-11-24T08:02:44.650Z,68.82
2022-11-24T08:04:47.400Z,68.92
2022-11-24T08:06:50.705Z,68.66
2022-11-24T08:08:53.773Z,68.68
2022-11-24T08:10:56.847Z,68.66
2022-11-24T08:13:02.515Z,68.48
2022-11-24T08:15:10.878Z,68.64
2022-11-24T08:17:14.375Z,68.14
2022-11-24T08:19:17.203Z,68.18
2022-11-24T08:21:25.390Z,68.31
2022-11-24T08:23:28.636Z,68.12
2022-11-24T08:25:33.025Z,68.05
2022-11-24T08:27:35.932Z,67.89
2022-11-24T08:29:40.292Z,67.87
2022-11-24T08:31:43.372Z,67.78
2022-11-24T08:33:46.674Z,67.80
2022-11-24T08:35:49.412Z,67.75
2022-11-24T08:37:52.244Z,67.48
2022-11-24T08:39:55.163Z,67.56
2022-11-24T08:41:58.032Z,67.52
2022-11-24T08:44:01.868Z,67.36
2022-11-24T08:46:08.173Z,67.42
2022-11-24T08:48:11.264Z,67.08
2022-11-24T08:50:14.918Z,66.96
2022-11-24T08:52:18.016Z,66.87
2022-11-24T08:54:21.769Z,67.11
2022-11-24T08:56:25.069Z,66.91
2022-11-24T08:58:28.922Z,66.85
2022-11-24T09:00:31.670Z,66.95
2022-11-24T09:02:35.856Z,66.58
2022-11-24T09:04:38.790Z,66.63
2022-11-24T09:06:41.735Z,66.40
2022-11-24T09:08:44.473Z,66.35
2022-11-24T09:10:48.024Z,66.23
2022-11-24T09:12:53.907Z,66.31
2022-11-24T09:14:56.859Z,66.01
2022-11-24T09:16:59.621Z,66.03
2022-11-24T09:19:07.822Z,65.82
2022-11-24T09:21:12.506Z,65.90
2022-11-24T09:23:15.554Z,65.77
2022-11-24T09:25:18.143Z,65.51
2022-11-24T09:27:21.004Z,65.75
2022-11-24T09:29:26.351Z,65.40
2022-11-24T09:31:33.590Z,65.42
2022-11-24T09:33:37.295Z,65.35
2022-11-24T09:35:41.443Z,65.14
2022-11-24T09:37:45.663Z,65.41
2022-11-24T09:39:48.593Z,65.21
2022-11-24T09:42:14.273Z,64.94
2022-11-24T09:44:46.126Z,65.13
2022-11-24T09:46:59.739Z,64.87
2022-11-24T09:49:05.892Z,64.67
2022-11-24T09:51:13.767Z,64.84
2022-11-24T09:53:23.615Z,64.64
2022-11-24T09:55:35.605Z,64.84
2022-11-24T09:57:41.516Z,64.68
2022-11-24T09:59:44.366Z,64.47
2022-11-24T10:01:48.950Z,64.54
2022-11-24T10:03:53.251Z,64.41
2022-11-24T10:05:56.582Z,64.61
2022-11-24T10:08:11.872Z,64.14
2022-11-24T10:10:24.323Z,64.25
2022-11-24T10:12:46.433Z,63.97
2022-11-24T10:15:05.216Z,64.17
2022-11-24T10:17:20.070Z,64.14
2022-11-24T10:19:37.563Z,64.20
2022-11-24T10:21:52.815Z,64.05
2022-11-24T10:24:11.120Z,63.78
2022-11-24T10:26:19.512Z,63.83
2022-11-24T10:28:22.398Z,63.58
2022-11-24T10:30:25.121Z,63.55
2022-11-24T10:32:34.657Z,63.64
2022-11-24T10:34:41.380Z,63.34
2022-11-24T10:36:50.880Z,63.43
2022-11-24T10:39:00.877Z,63.35
2022-11-24T10:41:09.292Z,63.42
2022-11-24T10:43:12.979Z,63.13
2022-11-24T10:45:18.446Z,63.06
2022-11-24T10:47:23.047Z,62.82
2022-11-24T10:49:31.109Z,62.79
2022-11-24T10:51:53.929Z,62.86
2022-11-24T10:54:02.808Z,62.80
2022-11-24T10:56:07.421Z,62.51
2022-11-24T10:58:17.467Z,62.30
2022-11-24T11:00:33.993Z,62.48
2022-11-24T11:02:38.891Z,62.44
2022-11-24T11:04:43.119Z,62.31
2022-11-24T11:06:46.293Z,62.20
2022-11-24T11:08:49.231Z,61.90
2022-11-24T11:11:08.365Z,61.98
2022-11-24T11:13:27.819Z,62.08
2022-11-24T11:15:32.520Z,62.00
2022-11-24T11:17:37.328Z,61.83
2022-11-24T11:19:50.258Z,61.81
2022-11-24T11:22:02.479Z,62.07
2022-11-24T11:24:14.612Z,61.94
2022-11-24T11:26:33.085Z,62.00
2022-11-24T11:28:37.162Z,61.93
2022-11-24T11:35:28.107Z,61.47
2022-11-24T11:37:33.934Z,61.55
2022-11-24T11:39:43.852Z,61.82
2022-11-24T11:41:53.095Z,61.54
2022-11-24T11:44:06.045Z,61.42
2022-11-24T11:46:13.229Z,61.38
2022-11-24T11:48:27.984Z,61.36
2022-11-24T11:51:06.803Z,61.59
2022-11-24T11:53:12.554Z,61.29
2022-11-24T11:55:49.515Z,61.28
2022-11-24T11:58:04.389Z,61.45
2022-11-24T12:00:14.359Z,61.25
2022-11-24T12:02:43.922Z,61.18
2022-11-24T12:04:54.057Z,61.39
2022-11-24T12:07:23.044Z,61.16
2022-11-24T12:09:36.527Z,61.19
2022-11-24T12:11:48.618Z,61.01
2022-11-24T12:14:19.669Z,61.05
2022-11-24T12:16:33.824Z,60.81
2022-11-24T12:18:59.975Z,60.89
2022-11-24T12:21:12.223Z,60.55
2022-11-24T12:23:23.500Z,60.40
2022-11-24T12:25:30.382Z,60.68
2022-11-24T12:27:42.904Z,60.65
2022-11-24T12:30:10.834Z,60.32
2022-11-24T12:32:30.015Z,60.48
2022-11-24T12:34:47.415Z,60.21
2022-11-24T12:37:05.189Z,60.09
2022-11-24T12:39:21.250Z,59.97
2022-11-24T12:41:43.717Z,60.08
2022-11-24T12:43:52.105Z,59.75
2022-11-24T12:46:01.923Z,59.87
2022-11-24T12:48:38.293Z,59.76
2022-11-24T12:50:44.218Z,59.78
2022-11-24T12:52:57.222Z,59.94
2022-11-24T12:55:02.656Z,59.62
2022-11-24T12:57:12.005Z,59.64
2022-11-24T12:59:29.127Z,59.60
2022-11-24T13:01:39.452Z,59.90
2022-11-24T13:03:50.843Z,59.79
2022-11-24T13:05:58.675Z,59.69
2022-11-24T13:08:04.473Z,59.83
2022-11-24T13:10:58.840Z,59.85
2022-11-24T13:13:03.271Z,59.61
2022-11-24T13:15:43.409Z,59.56
2022-11-24T13:17:58.388Z,59.61
2022-11-24T13:20:22.935Z,59.17
2022-11-24T13:22:26.931Z,59.16
2022-11-24T13:24:32.596Z,59.33
2022-11-24T13:26:49.094Z,59.28
2022-11-24T13:29:18.038Z,59.37
2022-11-24T13:31:27.608Z,59.07
2022-11-24T13:33:35.262Z,59.37
2022-11-24T13:35:39.799Z,59.23
2022-11-24T13:37:54.013Z,59.39
2022-11-24T13:39:58.332Z,59.59
2022-11-24T13:42:01.815Z,59.35
2022-11-24T13:44:25.504Z,59.51
2022-11-24T13:47:05.133Z,59.58
2022-11-24T13:49:15.117Z,59.57
2022-11-24T13:51:25.192Z,59.45
2022-11-24T13:53:34.037Z,59.64
2022-11-24T13:55:40.210Z,59.43
2022-11-24T13:57:45.877Z,59.71
2022-11-24T13:59:49.043Z,59.32
2022-11-24T14:01:58.332Z,59.31
2022-11-24T14:04:34.432Z,59.68
2022-11-24T14:06:42.675Z,59.57
2022-11-24T14:08:48.151Z,59.35
2022-11-24T14:10:51.590Z,59.49
2022-11-24T14:13:25.205Z,59.69
2022-11-24T14:15:34.035Z,59.48
2022-11-24T14:17:38.685Z,59.65
2022-11-24T14:19:41.950Z,59.61
2022-11-24T14:21:46.593Z,59.52
2022-11-24T14:23:52.796Z,59.43
2022-11-24T14:25:55.552Z,59.72
2022-11-24T14:27:58.580Z,59.79
2022-11-24T14:30:03.566Z,59.65
2022-11-24T14:32:17.404Z,59.66
2022-11-24T14:34:22.196Z,59.49
2022-11-24T14:36:24.982Z,59.54
2022-11-24T14:38:29.060Z,59.51
2022-11-24T14:40:40.510Z,59.52
2022-11-24T14:42:50.613Z,59.30
2022-11-24T14:44:56.491Z,59.26
2022-11-24T14:47:04.801Z,59.21
2022-11-24T14:49:08.734Z,59.16
2022-11-24T14:51:17.298Z,59.24
2022-11-24T14:53:26.214Z,59.20
2022-11-24T14:55:32.310Z,59.14
2022-11-24T14:57:36.735Z,59.38
2022-11-24T14:59:39.557Z,59.11
2022-11-24T15:01:42.639Z,59.20
2022-11-24T15:03:45.851Z,59.15
2022-11-24T15:05:54.584Z,59.35
2022-11-24T15:08:03.517Z,59.54
2022-11-24T15:10:18.375Z,59.23
2022-11-24T15:12:29.191Z,59.49
2022-11-24T15:14:41.983Z,59.48
2022-11-24T15:16:44.967Z,59.30
2022-11-24T15:18:52.423Z,59.52
2022-11-24T15:20:55.929Z,59.31
2022-11-24T15:23:22.800Z,59.61
2022-11-24T15:25:33.577Z,59.32
2022-11-24T15:27:37.855Z,59.62
2022-11-24T15:29:40.671Z,59.58
2022-11-24T15:31:47.949Z,59.77
2022-11-24T15:33:54.954Z,59.44
2022-11-24T15:35:58.313Z,59.68
2022-11-24T15:38:01.230Z,59.71
2022-11-24T15:40:04.070Z,59.58
2022-11-24T15:42:07.443Z,59.90
2022-11-24T15:44:11.709Z,59.96
2022-11-24T15:46:14.749Z,59.70
2022-11-24T15:48:18.590Z,59.81
2022-11-24T15:50:22.484Z,60.09
2022-11-24T15:52:25.479Z,59.92
2022-11-24T15:54:29.700Z,60.16
2022-11-24T15:56:34.663Z,60.00
2022-11-24T15:58:37.302Z,60.18
2022-11-24T16:00:42.037Z,60.25
2022-11-24T16:02:44.931Z,60.37
2022-11-24T16:04:48.064Z,60.42
2022-11-24T16:06:50.902Z,60.35
2022-11-24T16:08:56.869Z,60.12
2022-11-24T16:11:00.193Z,60.37
2022-11-24T16:13:03.080Z,60.21
2022-11-24T16:15:06.867Z,60.49
2022-11-24T16:17:13.698Z,60.24
2022-11-24T16:19:16.567Z,60.19
2022-11-24T16:21:19.318Z,60.50
2022-11-24T16:23:22.213Z,60.66
2022-11-24T16:25:25.015Z,60.56
2022-11-24T16:27:27.772Z,60.21
2022-11-24T16:29:35.329Z,60.40
2022-11-24T16:31:43.457Z,60.51
2022-11-24T16:33:47.710Z,60.45
2022-11-24T16:35:50.408Z,60.38
2022-11-24T16:37:53.208Z,60.43
2022-11-24T16:39:55.915Z,60.17
2022-11-24T16:41:58.716Z,60.51
2022-11-24T16:44:01.601Z,60.56
2022-11-24T16:46:20.361Z,60.40
2022-11-24T16:48:23.125Z,60.41
2022-11-24T16:50:27.778Z,60.43
2022-11-24T16:52:31.675Z,60.12
2022-11-24T16:54:34.845Z,60.30
2022-11-24T16:56:37.963Z,60.06
2022-11-24T16:58:42.207Z,60.23
2022-11-24T17:00:45.389Z,60.16
2022-11-24T17:02:48.344Z,59.93
2022-11-24T17:04:52.742Z,60.04
2022-11-24T17:06:58.516Z,59.93
2022-11-24T17:09:01.388Z,59.74
2022-11-24T17:11:08.852Z,59.81
2022-11-24T17:13:14.371Z,59.94
2022-11-24T17:15:32.778Z,59.97
2022-11-24T17:17:42.339Z,59.61
2022-11-24T17:19:59.362Z,59.59
2022-11-24T17:22:04.008Z,59.72
2022-11-24T17:24:10.123Z,59.75
2022-11-24T17:26:15.027Z,59.82
2022-11-24T17:28:18.038Z,59.49
2022-11-24T17:30:21.448Z,59.48
2022-11-24T17:32:24.351Z,59.71
2022-11-24T17:34:27.289Z,59.38
2022-11-24T17:36:32.749Z,59.32
2022-11-24T17:38:37.151Z,59.24
2022-11-24T17:40:39.980Z,59.36
2022-11-24T17:42:42.638Z,59.54
2022-11-24T17:44:45.292Z,59.18
2022-11-24T17:46:48.874Z,59.32
2022-11-24T17:48:52.820Z,59.20
2022-11-24T17:51:03.147Z,59.21
2022-11-24T17:53:05.874Z,59.08
2022-11-24T17:55:11.144Z,59.43
2022-11-24T17:57:15.982Z,59.02
2022-11-24T17:59:18.824Z,59.25
2022-11-24T18:01:22.910Z,59.11
2022-11-24T18:03:28.775Z,59.20
2022-11-24T18:05:31.660Z,58.93
2022-11-24T18:07:36.408Z,58.84
2022-11-24T18:09:39.342Z,58.99
2022-11-24T18:11:44.008Z,58.87
2022-11-24T18:13:59.557Z,58.90
2022-11-24T18:16:17.594Z,59.00
2022-11-24T18:18:20.672Z,58.75
2022-11-24T18:20:40.542Z,58.76
2022-11-24T18:25:12.273Z,58.56
2022-11-24T18:27:22.329Z,58.51
2022-11-24T18:29:27.730Z,58.48
2022-11-24T18:32:21.551Z,58.79
2022-11-24T18:34:29.813Z,58.75
2022-11-24T18:36:34.591Z,58.77
2022-11-24T18:38:38.652Z,58.79
2022-11-24T18:40:46.075Z,58.49
2022-11-24T18:42:50.681Z,58.71
2022-11-24T18:44:54.409Z,58.49
2022-11-24T18:46:57.842Z,58.60
2022-11-24T18:49:07.556Z,58.68
2022-11-24T18:51:14.437Z,58.55
2022-11-24T18:53:17.126Z,58.37
2022-11-24T18:55:20.096Z,58.33
2022-11-24T18:57:22.766Z,58.28
2022-11-24T18:59:27.400Z,58.58
2022-11-24T19:01:30.353Z,58.41
2022-11-24T19:03:33.155Z,58.17
2022-11-24T19:05:36.105Z,58.55
2022-11-24T19:07:39.172Z,58.48
2022-11-24T19:09:41.862Z,58.17
2022-11-24T19:11:46.698Z,58.30
2022-11-24T19:13:50.362Z,57.98
2022-11-24T19:15:54.376Z,57.93
2022-11-24T19:17:57.147Z,57.98
2022-11-24T19:19:59.876Z,57.99
2022-11-24T19:22:02.919Z,58.00
2022-11-24T19:24:06.866Z,57.93
2022-11-24T19:26:09.613Z,57.56
2022-11-24T19:28:12.646Z,57.61
2022-11-24T19:30:16.089Z,57.58
2022-11-24T19:32:20.254Z,57.60
2022-11-24T19:34:22.979Z,57.49
2022-11-24T19:36:26.124Z,57.43
2022-11-24T19:38:30.201Z,57.51
2022-11-24T19:40:33.015Z,57.48
2022-11-24T19:42:38.754Z,57.30
2022-11-24T19:44:41.649Z,57.03
2022-11-24T19:46:44.313Z,57.09
2022-11-24T19:48:51.002Z,56.99
2022-11-24T19:50:59.547Z,57.09
2022-11-24T19:53:02.219Z,57.11
2022-11-24T19:55:05.665Z,56.73
2022-11-24T19:57:08.791Z,56.99
2022-11-24T19:59:14.838Z,56.61
2022-11-24T20:01:20.264Z,56.69
2022-11-24T20:03:23.077Z,56.58
2022-11-24T20:05:27.087Z,56.81
2022-11-24T20:07:30.298Z,56.43
2022-11-24T20:09:33.135Z,56.66
2022-11-24T20:11:36.610Z,56.41
2022-11-24T20:13:41.068Z,56.53
2022-11-24T20:15:44.260Z,56.17
2022-11-24T20:17:47.029Z,56.20
2022-11-24T20:19:49.731Z,56.27
2022-11-24T20:21:53.992Z,56.07
2022-11-24T20:23:58.689Z,56.03
2022-11-24T20:26:06.466Z,55.91
2022-11-24T20:28:09.349Z,56.10
2022-11-24T20:30:12.751Z,56.03
2022-11-24T20:32:19.611Z,55.92
2022-11-24T20:34:23.455Z,55.95
2022-11-24T20:36:28.643Z,55.87
2022-11-24T20:38:34.507Z,55.60
2022-11-24T20:40:37.180Z,55.99
2022-11-24T20:42:39.935Z,55.66
2022-11-24T20:44:42.938Z,55.70
2022-11-24T20:46:47.629Z,55.91
2022-11-24T20:48:50.888Z,55.61
2022-11-24T20:50:53.625Z,55.60
2022-11-24T20:52:56.384Z,55.47
2022-11-24T20:55:03.844Z,55.75
2022-11-24T20:57:06.602Z,55.68
2022-11-24T20:59:11.189Z,55.33
2022-11-24T21:01:15.932Z,55.21
2022-11-24T21:03:18.743Z,55.36
2022-11-24T21:05:21.470Z,55.41
2022-11-24T21:07:24.197Z,55.48
2022-11-24T21:09:27.418Z,55.14
2022-11-24T21:11:40.739Z,55.40
2022-11-24T21:13:45.290Z,55.14
2022-11-24T21:15:48.120Z,55.01
